Time;durP1;ratioP1;P1;durP2;ratioP2;P2;SDS_P1;SDS_P2;PMS_P1;PMS_P2;Temp;Humidity;BMP_temperature;BMP_pressure;BME280_temperature;BME280_humidity;BME280_pressure;Samples;Min_cycle;Max_cycle;Signal;HPM_P1;HPM_P2
2022/12/25 00:02:17;;;;;;;23.80;14.27;;;4.30;99.90;;;4.00;85.54;100337.19;5031440;28;20203;-68
2022/12/25 00:04:46;;;;;;;21.67;13.73;;;4.30;99.90;;;3.95;86.42;100331.16;5031225;28;20198;-68
2022/12/25 00:07:15;;;;;;;22.67;13.20;;;4.30;99.90;;;3.99;86.43;100343.13;5031044;28;20206;-68
2022/12/25 00:09:44;;;;;;;20.20;12.43;;;4.30;99.90;;;3.96;85.65;100340.50;5031291;28;20640;-68
2022/12/25 00:12:18;;;;;;;20.90;13.20;;;4.30;99.90;;;4.01;86.30;100361.84;5031405;28;20203;-66
2022/12/25 00:14:47;;;;;;;25.83;13.90;;;4.30;99.90;;;4.00;85.72;100367.78;5031149;28;20203;-66
2022/12/25 00:17:20;;;;;;;20.07;12.47;;;4.30;99.90;;;3.93;85.98;100366.78;5030816;28;20211;-66
2022/12/25 00:19:51;;;;;;;18.73;12.47;;;4.30;99.90;;;3.97;86.33;100376.22;5030676;28;20248;-68
2022/12/25 00:22:20;;;;;;;20.23;13.03;;;4.30;99.90;;;3.98;85.82;100388.16;5031069;28;20531;-67
2022/12/25 00:24:49;;;;;;;17.40;12.00;;;4.30;99.90;;;4.01;86.18;100389.91;5031011;28;20707;-66
2022/12/25 00:27:20;;;;;;;19.47;12.50;;;4.30;99.90;;;3.92;85.42;100369.31;5030858;28;20210;-67
2022/12/25 00:29:51;;;;;;;20.93;12.17;;;4.30;99.90;;;4.00;85.28;100390.72;5031033;28;20206;-67
2022/12/25 00:32:22;;;;;;;22.90;13.37;;;4.20;99.90;;;3.99;86.25;100394.13;5030736;28;20199;-67
2022/12/25 00:34:55;;;;;;;20.07;13.03;;;4.20;99.90;;;3.97;85.81;100385.56;5034400;28;20203;-66
2022/12/25 00:37:24;;;;;;;20.47;13.27;;;4.30;99.90;;;3.98;85.65;100392.41;5034803;28;20198;-67
2022/12/25 00:39:52;;;;;;;20.93;13.57;;;4.20;99.90;;;3.98;86.15;100390.72;5034833;28;20241;-67
2022/12/25 00:42:22;;;;;;;21.23;13.67;;;4.30;99.90;;;4.00;85.67;100395.81;5035430;28;20298;-67
2022/12/25 00:44:51;;;;;;;24.47;14.00;;;4.30;99.90;;;4.03;86.31;100401.84;5034702;28;20218;-67
2022/12/25 00:47:25;;;;;;;23.17;14.57;;;4.30;99.90;;;4.06;85.72;100411.25;5034824;28;20218;-67
2022/12/25 00:49:59;;;;;;;24.97;14.33;;;4.30;99.90;;;4.07;85.67;100418.06;5034483;28;20292;-68
2022/12/25 00:52:30;;;;;;;22.83;13.73;;;4.30;99.90;;;4.06;86.19;100427.41;5034628;28;20225;-69
2022/12/25 00:54:58;;;;;;;21.23;13.27;;;4.30;99.90;;;4.11;86.41;100440.25;5034880;28;20182;-67
2022/12/25 00:57:30;;;;;;;23.23;13.57;;;4.30;99.90;;;4.14;85.72;100442.88;5034690;28;20283;-67
2022/12/25 00:59:58;;;;;;;22.37;13.67;;;4.40;99.90;;;4.17;86.04;100444.63;5033881;28;20623;-67
2022/12/25 01:02:28;;;;;;;25.50;14.17;;;4.30;99.90;;;4.19;85.90;100450.63;5034343;28;20206;-68
2022/12/25 01:04:58;;;;;;;29.40;13.97;;;4.40;99.90;;;4.19;85.79;100451.47;5034074;28;20198;-66
2022/12/25 01:07:29;;;;;;;22.53;13.90;;;4.40;99.90;;;4.22;85.42;100458.34;5034615;28;20211;-69
2022/12/25 01:12:44;;;;;;;24.90;13.30;;;4.40;99.90;;;4.19;85.71;100456.56;5034219;28;20742;-68
2022/12/25 01:15:14;;;;;;;23.83;13.70;;;4.40;99.90;;;4.20;85.45;100460.88;5034027;28;20210;-67
2022/12/25 01:17:45;;;;;;;23.57;12.63;;;4.40;99.90;;;4.18;85.27;100457.41;5034077;28;20389;-69
2022/12/25 01:20:18;;;;;;;22.33;12.40;;;4.40;99.90;;;4.19;85.47;100464.22;5034593;28;20668;-67
2022/12/25 01:22:46;;;;;;;23.03;13.13;;;4.40;99.90;;;4.16;85.47;100460.75;5034032;28;20210;-66
2022/12/25 01:25:15;;;;;;;24.70;12.87;;;4.40;99.90;;;4.19;85.69;100459.13;5034194;28;20293;-66
2022/12/25 01:27:43;;;;;;;24.63;12.60;;;4.40;99.90;;;4.18;85.44;100448.91;5033944;28;20277;-66
2022/12/25 01:30:13;;;;;;;18.60;11.60;;;4.40;99.90;;;4.17;85.49;100455.69;5033980;28;20673;-66
2022/12/25 01:32:42;;;;;;;25.83;13.87;;;4.40;99.90;;;4.17;85.56;100448.03;5034303;28;20207;-67
2022/12/25 01:35:11;;;;;;;20.87;12.20;;;4.40;99.90;;;4.20;85.66;100444.69;5032671;28;20615;-67
2022/12/25 01:37:41;;;;;;;24.27;13.03;;;4.40;99.90;;;4.21;85.55;100451.53;5033731;28;20207;-66
2022/12/25 01:40:10;;;;;;;22.17;12.47;;;4.40;99.90;;;4.19;85.62;100450.63;5033341;28;20234;-68
2022/12/25 01:42:39;;;;;;;19.77;10.80;;;4.40;99.90;;;4.19;85.88;100458.25;5033328;28;20243;-67
2022/12/25 01:45:38;;;;;;;20.53;11.70;;;4.50;99.90;;;4.20;85.65;100455.75;5033338;28;20569;-65
2022/12/25 01:48:14;;;;;;;18.17;10.20;;;4.50;99.90;;;4.20;85.62;100448.13;5033578;28;20201;-65
2022/12/25 01:50:47;;;;;;;18.00;9.87;;;4.40;99.90;;;4.20;86.20;100457.44;5033291;28;20237;-67
2022/12/25 01:53:16;;;;;;;18.67;10.43;;;4.40;99.90;;;4.19;86.09;100465.91;5033544;28;20206;-66
2022/12/25 01:55:48;;;;;;;17.63;10.77;;;4.40;99.90;;;4.18;85.75;100457.41;5033451;28;20276;-67
2022/12/25 01:58:18;;;;;;;16.83;9.93;;;4.40;99.90;;;4.16;86.07;100458.19;5033094;28;20206;-68
2022/12/25 02:00:46;;;;;;;15.60;9.13;;;4.50;99.90;;;4.18;86.20;100467.59;5033037;28;20238;-67
2022/12/25 02:03:16;;;;;;;15.23;9.00;;;4.40;99.90;;;4.16;85.97;100464.19;5032900;28;20252;-67
2022/12/25 02:05:47;;;;;;;17.10;9.90;;;4.40;99.90;;;4.17;85.79;100465.03;5033123;28;20202;-65
2022/12/25 02:08:18;;;;;;;15.00;8.60;;;4.40;99.90;;;4.14;86.19;100455.63;5033036;28;20191;-68
2022/12/25 02:10:47;;;;;;;17.47;9.40;;;4.40;99.90;;;4.18;85.40;100448.91;5032694;28;20187;-68
2022/12/25 02:13:19;;;;;;;16.93;9.80;;;4.40;99.90;;;4.19;85.40;100448.06;5032903;28;20210;-67
2022/12/25 02:16:00;;;;;;;14.60;8.93;;;4.40;99.90;;;4.20;86.03;100443.00;5033133;28;20276;-66
2022/12/25 02:18:42;;;;;;;16.57;9.40;;;4.50;99.90;;;4.23;85.50;100444.75;5032951;28;20710;-69
2022/12/25 02:21:32;;;;;;;18.63;10.27;;;4.50;99.90;;;4.24;85.57;100447.34;5032750;28;20249;-69
2022/12/25 02:24:31;;;;;;;16.13;9.53;;;4.50;99.90;;;4.25;85.68;100453.31;5032546;28;20187;-66
2022/12/25 02:27:16;;;;;;;16.50;9.57;;;4.50;99.90;;;4.27;85.61;100461.81;5032442;28;20209;-67
2022/12/25 02:29:53;;;;;;;18.73;9.93;;;4.50;99.90;;;4.29;85.24;100455.09;5033031;28;20203;-66
2022/12/25 02:32:29;;;;;;;16.17;10.13;;;4.50;99.90;;;4.30;85.52;100446.59;5032793;28;20268;-67
2022/12/25 02:35:05;;;;;;;18.83;10.50;;;4.50;99.90;;;4.28;84.85;100444.03;5032835;28;20214;-67
2022/12/25 02:37:42;;;;;;;18.40;10.73;;;4.50;99.90;;;4.25;84.59;100428.66;5032500;28;20240;-66
2022/12/25 02:40:17;;;;;;;18.97;9.53;;;4.50;99.90;;;4.24;85.84;100434.59;5032319;28;20241;-66
2022/12/25 03:08:35;;;;;;;18.43;10.33;;;4.50;99.90;;;4.26;85.24;100448.22;5032027;28;20608;-67
2022/12/25 03:16:49;;;;;;;19.07;10.07;;;4.50;99.90;;;4.32;85.34;100453.47;5031874;28;20571;-67
2022/12/25 03:16:49;;;;;;;17.97;11.77;;;4.50;99.90;;;4.30;84.90;100457.66;5031860;28;20282;-67
2022/12/25 03:27:49;;;;;;;21.00;11.53;;;4.60;99.90;;;4.32;85.37;100460.25;5031576;28;20234;-66
2022/12/25 03:33:14;;;;;;;21.70;11.53;;;4.60;99.90;;;4.40;85.15;100460.41;5031332;28;20597;-67
2022/12/25 03:36:12;;;;;;;18.40;10.67;;;4.60;99.90;;;4.39;85.69;100462.09;5030955;28;20256;-69
2022/12/25 04:38:19;;;;;;;20.73;11.90;;;4.80;99.90;;;4.56;84.67;100482.81;5030629;28;20662;-68
2022/12/25 04:40:48;;;;;;;21.37;11.43;;;4.70;99.90;;;4.52;84.50;100488.69;5030965;28;20273;-67
2022/12/25 04:43:18;;;;;;;22.13;12.70;;;4.80;99.90;;;4.56;84.53;100498.13;5030566;28;20199;-67
2022/12/25 04:45:53;;;;;;;22.90;11.93;;;4.80;99.90;;;4.57;84.58;100498.19;5030721;28;20229;-66
2022/12/25 04:48:22;;;;;;;21.73;12.33;;;4.80;99.90;;;4.57;84.73;100499.88;5030452;28;20194;-67
2022/12/25 04:50:50;;;;;;;22.50;11.60;;;4.80;99.90;;;4.57;84.65;100500.75;5030437;28;20238;-66
2022/12/25 04:53:19;;;;;;;25.70;13.03;;;4.70;99.90;;;4.58;84.89;100504.16;5030627;28;20202;-69
2022/12/25 04:55:47;;;;;;;26.20;12.23;;;4.80;99.90;;;4.62;84.71;100500.81;5030845;28;20656;-67
2022/12/25 04:58:17;;;;;;;24.00;11.30;;;4.80;99.90;;;4.59;84.80;100505.88;5031092;28;20198;-66
2022/12/25 05:00:45;;;;;;;21.37;12.73;;;4.80;99.90;;;4.63;85.27;100507.63;5030518;28;20226;-67
2022/12/25 05:03:14;;;;;;;21.57;11.67;;;4.80;99.90;;;4.61;84.85;100504.22;5030772;28;20210;-67
2022/12/25 05:05:42;;;;;;;25.10;13.07;;;4.80;99.90;;;4.62;84.88;100511.03;5030760;28;20205;-66
2022/12/25 05:08:11;;;;;;;22.50;12.43;;;4.80;99.90;;;4.60;84.72;100505.03;5030385;28;20230;-66
2022/12/25 05:10:40;;;;;;;24.10;12.47;;;4.80;99.90;;;4.58;85.07;100496.50;5030061;28;20203;-66
2022/12/25 05:13:09;;;;;;;27.40;13.77;;;4.80;99.90;;;4.58;85.21;100494.81;5030612;28;20199;-68
2022/12/25 05:15:41;;;;;;;22.10;12.27;;;4.80;99.90;;;4.61;85.20;100496.56;5030660;28;20290;-67
2022/12/25 05:18:10;;;;;;;22.53;12.47;;;4.80;99.90;;;4.63;84.88;100507.63;5030627;28;20680;-67
2022/12/25 05:20:38;;;;;;;25.03;12.90;;;4.80;99.90;;;4.66;85.73;100502.59;5033735;28;20256;-67
2022/12/25 05:23:10;;;;;;;25.03;12.70;;;4.90;99.90;;;4.69;85.64;100505.22;5033959;28;20199;-68
2022/12/25 05:25:40;;;;;;;27.23;12.80;;;4.90;99.90;;;4.71;84.91;100512.91;5034262;28;20858;-67
2022/12/25 05:28:08;;;;;;;29.73;14.50;;;4.90;99.90;;;4.73;85.22;100514.66;5034081;28;20203;-67
2022/12/25 05:30:36;;;;;;;26.40;13.00;;;4.90;99.90;;;4.75;85.25;100515.56;5034062;28;20260;-68
2022/12/25 05:33:07;;;;;;;26.07;13.77;;;4.90;99.90;;;4.77;85.19;100508.78;5034080;28;20717;-67
2022/12/25 05:35:37;;;;;;;24.97;12.33;;;5.00;99.90;;;4.82;85.16;100516.50;5034096;28;20186;-67
2022/12/25 05:38:06;;;;;;;24.67;13.20;;;5.00;99.90;;;4.82;85.03;100522.50;5034099;28;20207;-67
2022/12/25 05:40:38;;;;;;;26.07;13.23;;;5.00;99.90;;;4.83;84.67;100518.25;5033633;28;20269;-68
2022/12/25 05:43:06;;;;;;;29.33;13.57;;;5.00;99.90;;;4.84;85.10;100523.38;5033829;28;20245;-66
2022/12/25 05:45:35;;;;;;;25.63;13.40;;;5.00;99.90;;;4.84;85.18;100531.03;5033912;28;20725;-67
2022/12/25 05:48:04;;;;;;;30.50;14.93;;;5.00;99.90;;;4.85;85.46;100545.53;5033770;28;20686;-67
2022/12/25 05:50:36;;;;;;;28.57;14.27;;;5.00;99.90;;;4.88;85.25;100543.88;5033402;28;20870;-67
2022/12/25 05:53:05;;;;;;;31.40;14.00;;;5.00;99.90;;;4.88;85.32;100542.19;5033367;28;20265;-66
2022/12/25 05:55:36;;;;;;;28.63;14.50;;;5.10;99.90;;;4.90;85.24;100547.28;5033782;28;20195;-67
2022/12/25 05:58:06;;;;;;;27.57;14.67;;;5.10;99.90;;;4.90;85.22;100553.28;5033284;28;20265;-67
2022/12/25 06:00:35;;;;;;;26.80;14.25;;;5.10;99.90;;;4.91;84.99;100549.91;5032946;28;20286;-67
2022/12/25 06:03:03;;;;;;;27.60;14.50;;;5.10;99.90;;;4.89;84.53;100550.69;5033197;28;20650;-68
2022/12/25 06:05:33;;;;;;;28.40;14.17;;;5.10;99.90;;;4.91;85.19;100552.44;5032884;28;20199;-68
2022/12/25 06:08:02;;;;;;;25.03;13.60;;;5.10;99.90;;;4.93;85.00;100547.38;5033909;28;20202;-68
2022/12/25 06:10:30;;;;;;;26.40;13.83;;;5.10;99.90;;;4.93;85.38;100550.78;5033576;28;20210;-69
2022/12/25 06:12:59;;;;;;;26.13;13.03;;;5.10;99.90;;;4.96;85.55;100560.19;5033223;28;20491;-66
2022/12/25 06:15:28;;;;;;;27.00;13.50;;;5.10;99.90;;;5.01;85.22;100568.81;5033185;28;20594;-67
2022/12/25 06:17:56;;;;;;;30.07;14.67;;;5.20;99.90;;;5.03;85.17;100560.34;5033399;28;20199;-67
2022/12/25 06:20:25;;;;;;;28.30;14.20;;;5.20;99.90;;;5.05;84.95;100573.16;5033537;28;20203;-68
2022/12/25 06:22:55;;;;;;;27.67;14.57;;;5.20;99.90;;;5.08;84.83;100580.84;5031733;28;20257;-69
2022/12/25 06:25:24;;;;;;;25.03;13.27;;;5.20;99.90;;;5.10;85.06;100586.88;5033574;28;20254;-68
2022/12/25 06:27:53;;;;;;;28.67;14.07;;;5.30;99.90;;;5.09;84.56;100596.22;5033429;28;20234;-69
2022/12/25 06:30:22;;;;;;;28.40;14.77;;;5.20;99.90;;;5.09;84.94;100603.88;5032606;28;20199;-68
2022/12/25 06:32:50;;;;;;;25.60;12.87;;;5.30;99.90;;;5.05;84.71;100598.69;5032376;28;20260;-66
2022/12/25 06:35:22;;;;;;;33.80;15.77;;;5.30;99.90;;;5.09;84.69;100601.34;5033280;28;20217;-66
2022/12/25 06:37:51;;;;;;;27.00;13.80;;;5.30;99.90;;;5.09;84.74;100603.03;5032608;28;20207;-68
2022/12/25 06:40:21;;;;;;;28.50;14.93;;;5.30;99.90;;;5.13;84.98;100612.47;5033030;28;20237;-68
2022/12/25 06:42:51;;;;;;;28.57;14.47;;;5.30;99.90;;;5.12;84.75;100622.66;5032624;28;20316;-67
2022/12/25 06:45:20;;;;;;;30.03;14.17;;;5.30;99.90;;;5.13;84.89;100619.28;5032846;28;20211;-67
2022/12/25 06:47:48;;;;;;;25.97;14.37;;;5.30;99.90;;;5.14;84.75;100624.41;5032768;28;20202;-66
2022/12/25 06:50:17;;;;;;;27.60;14.17;;;5.30;99.90;;;5.14;84.66;100628.66;5032442;28;20650;-68
2022/12/25 06:52:46;;;;;;;31.67;14.70;;;5.30;99.90;;;5.12;84.62;100627.75;5032663;28;20263;-67
2022/12/25 06:55:14;;;;;;;32.13;14.77;;;5.30;99.90;;;5.14;84.99;100634.63;5031974;28;20210;-69
2022/12/25 06:57:44;;;;;;;31.20;14.93;;;5.30;99.90;;;5.14;84.60;100641.44;5032330;28;20297;-68
2022/12/25 07:00:14;;;;;;;33.33;16.37;;;5.30;99.90;;;5.15;85.10;100650.81;5032168;28;20222;-69
2022/12/25 07:02:48;;;;;;;34.50;15.73;;;5.30;99.90;;;5.16;84.84;100648.31;5032054;28;20238;-68
2022/12/25 07:05:17;;;;;;;36.63;16.87;;;5.40;99.90;;;5.13;84.86;100650.78;5032125;28;20278;-66
2022/12/25 07:07:45;;;;;;;37.87;17.93;;;5.30;99.90;;;5.11;85.09;100659.25;5032099;28;20273;-67
2022/12/25 07:10:14;;;;;;;38.53;18.00;;;5.30;99.90;;;5.08;85.25;100665.13;5031983;28;20203;-69
2022/12/25 07:12:44;;;;;;;41.43;17.60;;;5.30;99.90;;;5.06;85.29;100664.25;5032013;28;20248;-67
2022/12/25 07:15:12;;;;;;;41.97;18.80;;;5.30;99.90;;;5.04;85.18;100668.47;5031900;28;20312;-66
2022/12/25 07:17:40;;;;;;;40.80;18.90;;;5.20;99.90;;;5.02;85.52;100667.59;5032571;28;20619;-68
2022/12/25 07:20:10;;;;;;;44.33;18.63;;;5.20;99.90;;;5.00;85.38;100671.78;5032042;28;20276;-67
2022/12/25 07:22:38;;;;;;;42.33;17.43;;;5.20;99.90;;;5.02;85.86;100675.25;5031560;28;20226;-66
2022/12/25 07:25:08;;;;;;;45.07;19.33;;;5.20;99.90;;;5.01;85.49;100669.28;5031799;28;20663;-67
2022/12/25 07:27:36;;;;;;;43.63;19.20;;;5.20;99.90;;;5.01;85.37;100681.19;5031882;28;20633;-68
2022/12/25 07:30:08;;;;;;;38.63;17.53;;;5.10;99.90;;;5.03;85.61;100684.63;5032260;28;20202;-67
2022/12/25 07:32:37;;;;;;;38.47;17.87;;;5.20;99.90;;;5.04;85.45;100694.00;5031497;28;20260;-66
2022/12/25 07:35:06;;;;;;;36.23;16.87;;;5.20;99.90;;;5.03;84.89;100684.63;5031561;28;20579;-67
2022/12/25 07:37:35;;;;;;;36.43;17.37;;;5.20;99.90;;;5.01;84.81;100693.97;5031729;28;20640;-69
2022/12/25 07:40:04;;;;;;;35.83;16.73;;;5.20;99.90;;;4.98;85.56;100694.75;5032135;28;20237;-66
2022/12/25 07:42:32;;;;;;;33.93;16.00;;;5.20;99.90;;;4.99;85.35;100701.56;5030841;28;20253;-67
2022/12/25 07:45:01;;;;;;;37.97;17.03;;;5.20;99.90;;;5.01;84.93;100705.03;5031870;28;20195;-68
2022/12/25 07:47:30;;;;;;;32.90;16.60;;;5.20;99.90;;;5.02;85.37;100700.78;5031300;28;20203;-67
2022/12/25 07:49:59;;;;;;;35.37;16.73;;;5.20;99.90;;;5.01;84.89;100710.16;5031134;28;20296;-66
2022/12/25 07:52:27;;;;;;;35.67;16.77;;;5.20;99.90;;;5.01;85.00;100720.38;5031773;28;20261;-67
2022/12/25 07:54:58;;;;;;;31.70;16.37;;;5.20;99.90;;;5.00;85.11;100728.81;5031514;28;20586;-67
2022/12/25 07:57:28;;;;;;;30.10;16.37;;;5.20;99.90;;;5.02;84.80;100732.28;5031714;28;20211;-67
2022/12/25 07:59:56;;;;;;;30.43;16.47;;;5.20;99.90;;;5.02;84.94;100731.44;5031490;28;20222;-68
2022/12/25 08:02:27;;;;;;;30.73;16.10;;;5.20;99.90;;;5.03;84.82;100731.44;5031965;28;20230;-69
2022/12/25 08:04:58;;;;;;;33.33;16.53;;;5.20;99.90;;;5.01;84.66;100740.78;5032617;28;20233;-66
2022/12/25 08:07:26;;;;;;;31.40;16.00;;;5.20;99.90;;;5.03;84.70;100739.13;5031796;28;20203;-67
2022/12/25 08:09:55;;;;;;;35.33;16.50;;;5.20;99.90;;;5.05;84.53;100746.84;5031418;28;20199;-66
2022/12/25 08:12:23;;;;;;;31.57;16.53;;;5.20;99.90;;;5.05;84.58;100745.13;5031415;28;20199;-68
2022/12/25 08:14:52;;;;;;;33.90;15.77;;;5.30;99.90;;;5.09;84.91;100753.72;5031639;28;20209;-67
2022/12/25 08:17:20;;;;;;;29.67;16.20;;;5.30;99.90;;;5.11;84.52;100749.50;5031342;28;20655;-68
2022/12/25 08:19:49;;;;;;;32.27;15.97;;;5.30;99.90;;;5.13;84.72;100745.31;5031141;28;20233;-67
2022/12/25 08:22:18;;;;;;;31.13;16.47;;;5.30;99.90;;;5.14;84.48;100747.00;5030985;28;20226;-67
2022/12/25 08:24:47;;;;;;;31.47;17.93;;;5.40;99.90;;;5.17;84.67;100744.53;5031240;28;20584;-68
2022/12/25 08:27:16;;;;;;;31.37;15.43;;;5.40;99.90;;;5.23;84.60;100752.34;5031189;28;20207;-66
2022/12/25 08:29:44;;;;;;;26.77;14.60;;;5.40;99.90;;;5.27;84.47;100755.81;5030960;28;20280;-67
2022/12/25 08:32:13;;;;;;;24.47;14.40;;;5.50;99.90;;;5.27;84.51;100758.38;5031235;28;20210;-67
2022/12/25 08:34:41;;;;;;;27.50;15.53;;;5.50;99.90;;;5.28;84.26;100763.50;5030961;28;20199;-66
2022/12/25 08:37:10;;;;;;;28.77;15.37;;;5.50;99.90;;;5.29;84.07;100772.03;5030725;28;20210;-66
2022/12/25 08:39:39;;;;;;;26.03;16.13;;;5.50;99.90;;;5.33;84.27;100769.56;5029773;28;20199;-67
2022/12/25 08:42:08;;;;;;;24.90;15.07;;;5.50;99.90;;;5.36;84.21;100773.03;5030708;28;20210;-66
2022/12/25 08:44:37;;;;;;;26.13;15.73;;;5.60;99.90;;;5.36;84.38;100783.25;5031099;28;20214;-67
2022/12/25 08:47:07;;;;;;;27.93;15.57;;;5.60;99.90;;;5.37;84.17;100790.94;5031037;28;20214;-68
2022/12/25 08:49:35;;;;;;;28.00;15.03;;;5.60;99.90;;;5.37;84.53;100790.09;5030972;28;20507;-66
2022/12/25 08:52:04;;;;;;;27.47;15.83;;;5.60;99.90;;;5.39;84.03;100789.28;5030679;28;20333;-66
2022/12/25 08:54:35;;;;;;;26.57;14.63;;;5.60;99.90;;;5.41;83.53;100789.31;5032029;28;20234;-67
2022/12/25 08:57:05;;;;;;;25.00;14.33;;;5.60;99.90;;;5.41;83.78;100791.88;5035860;28;20191;-67
2022/12/25 08:59:34;;;;;;;22.97;13.37;;;5.70;99.90;;;5.44;83.76;100797.06;5034999;28;20253;-67
2022/12/25 09:02:02;;;;;;;26.13;15.20;;;5.70;99.90;;;5.45;83.41;100798.78;5034876;28;20253;-66
2022/12/25 09:04:31;;;;;;;28.00;14.97;;;5.70;99.90;;;5.44;83.42;100797.06;5035019;28;20679;-66
2022/12/25 09:06:59;;;;;;;24.27;14.23;;;5.70;99.90;;;5.43;83.35;100806.41;5035543;28;20218;-70
2022/12/25 09:09:28;;;;;;;24.70;14.67;;;5.70;99.90;;;5.42;83.32;100811.50;5035697;28;21030;-68
2022/12/25 09:11:57;;;;;;;27.13;15.80;;;5.70;99.90;;;5.44;83.26;100817.50;5036194;28;20775;-68
2022/12/25 09:14:26;;;;;;;28.93;15.10;;;5.70;99.90;;;5.42;83.24;100811.50;5034914;28;20276;-68
2022/12/25 09:16:55;;;;;;;27.20;14.93;;;5.70;99.90;;;5.41;83.18;100813.16;5035493;28;20517;-67
2022/12/25 09:19:23;;;;;;;27.00;14.83;;;5.60;99.90;;;5.40;83.25;100820.81;5034943;28;20214;-68
2022/12/25 09:21:52;;;;;;;27.20;14.77;;;5.70;99.90;;;5.40;83.27;100820.81;5035559;28;20265;-68
2022/12/25 09:24:21;;;;;;;29.90;15.80;;;5.70;99.90;;;5.40;82.83;100824.22;5035540;28;20269;-67
2022/12/25 09:26:50;;;;;;;27.70;15.23;;;5.60;99.90;;;5.39;83.09;100819.09;5034886;28;20253;-68
2022/12/25 09:29:18;;;;;;;29.00;14.83;;;5.60;99.90;;;5.40;83.01;100815.72;5034897;28;20245;-69
2022/12/25 09:31:48;;;;;;;29.07;16.17;;;5.70;99.90;;;5.43;83.12;100815.78;5035876;28;20211;-68
2022/12/25 09:34:17;;;;;;;26.30;15.37;;;5.70;99.90;;;5.44;83.37;100813.25;5035154;28;20213;-69
2022/12/25 09:36:46;;;;;;;23.30;13.93;;;5.70;99.90;;;5.48;83.25;100812.47;5035094;28;20322;-67
2022/12/25 09:39:14;;;;;;;28.33;15.37;;;5.80;99.90;;;5.52;82.85;100810.84;5035898;28;20201;-66
2022/12/25 09:41:55;;;;;;;25.07;14.70;;;5.70;99.90;;;5.54;82.73;100809.19;5035298;28;20203;-68
2022/12/25 09:44:28;;;;;;;23.20;12.90;;;5.80;99.90;;;5.54;82.85;100797.28;5034833;28;20268;-68
2022/12/25 09:47:02;;;;;;;26.43;15.10;;;5.80;99.90;;;5.64;82.80;100803.47;5035509;28;20636;-67
2022/12/25 09:49:40;;;;;;;23.80;13.13;;;5.80;99.90;;;5.70;82.73;100798.44;5035040;28;20644;-66
2022/12/25 09:52:15;;;;;;;25.10;14.13;;;5.90;99.90;;;5.73;82.49;100803.63;5034100;28;20194;-67
2022/12/25 09:54:54;;;;;;;26.17;13.90;;;5.90;99.90;;;5.73;81.78;100806.19;5034071;28;20635;-68
2022/12/25 09:57:26;;;;;;;26.03;14.53;;;5.90;99.90;;;5.71;81.70;100812.13;5033943;28;20260;-68
2022/12/25 09:59:55;;;;;;;25.77;14.40;;;5.90;99.90;;;5.70;81.67;100810.38;5033605;28;20222;-67
2022/12/25 10:02:54;;;;;;;22.30;13.30;;;5.90;99.90;;;5.67;81.57;100810.31;5033854;28;20566;-69
2022/12/25 10:05:47;;;;;;;21.00;13.30;;;5.90;99.90;;;5.64;81.12;100806.00;5033949;28;20229;-68
2022/12/25 10:08:25;;;;;;;22.30;13.57;;;5.90;99.90;;;5.65;81.16;100806.88;5034196;28;20253;-68
2022/12/25 10:11:05;;;;;;;23.17;12.93;;;5.90;99.90;;;5.66;81.52;100803.47;5034114;28;20628;-69
2022/12/25 10:13:59;;;;;;;28.63;14.73;;;5.90;99.90;;;5.71;81.57;100807.00;5033809;28;20240;-69
2022/12/25 10:16:38;;;;;;;21.20;12.90;;;5.90;99.90;;;5.72;81.44;100799.34;5033538;28;20199;-67
2022/12/25 10:19:28;;;;;;;19.67;12.80;;;5.90;99.90;;;5.76;81.18;100806.25;5033445;28;20554;-68
2022/12/25 10:22:02;;;;;;;23.00;12.87;;;5.90;99.90;;;5.79;80.96;100806.31;5033571;28;20191;-67
2022/12/25 10:24:36;;;;;;;28.87;16.83;;;6.00;99.90;;;5.81;80.83;100807.19;5033078;28;20672;-69
2022/12/25 10:27:15;;;;;;;28.53;15.63;;;6.00;99.90;;;5.88;80.89;100809.88;5033368;28;20191;-70
2022/12/25 10:29:45;;;;;;;23.30;13.60;;;6.10;99.90;;;5.92;80.87;100811.66;5033197;28;20257;-70
2022/12/25 10:32:14;;;;;;;22.37;13.47;;;6.10;99.90;;;5.96;80.63;100808.38;5033079;28;20230;-68
2022/12/25 10:34:43;;;;;;;19.70;12.30;;;6.10;99.90;;;5.99;80.88;100808.44;5032778;28;20660;-67
2022/12/25 10:37:14;;;;;;;23.20;12.50;;;6.20;99.90;;;5.97;80.64;100810.13;5033134;28;20618;-67
2022/12/25 10:39:43;;;;;;;20.67;12.57;;;6.20;99.90;;;5.98;80.46;100812.69;5033100;28;20198;-68
2022/12/25 10:42:39;;;;;;;22.60;12.77;;;6.20;99.90;;;6.02;79.99;100808.50;5032647;28;20202;-66
2022/12/25 10:45:09;;;;;;;19.37;12.17;;;6.30;99.90;;;6.09;80.60;100825.69;5032582;28;20637;-67
2022/12/25 10:47:41;;;;;;;22.47;12.60;;;6.30;99.90;;;6.18;80.55;100830.09;5032544;28;20190;-67
2022/12/25 10:50:20;;;;;;;22.13;12.90;;;6.40;99.90;;;6.20;79.57;100829.31;5032795;28;20239;-68
2022/12/25 10:52:56;;;;;;;21.37;12.40;;;6.40;99.90;;;6.23;79.85;100819.13;5032441;28;20228;-69
2022/12/25 10:55:25;;;;;;;22.20;12.63;;;6.40;99.90;;;6.28;79.20;100820.06;5032823;28;20561;-67
2022/12/25 10:57:57;;;;;;;20.03;11.60;;;6.40;99.90;;;6.30;79.53;100815.00;5032533;28;20613;-67
2022/12/25 11:00:28;;;;;;;17.57;11.33;;;6.50;99.90;;;6.28;79.24;100814.09;5032786;28;20221;-67
2022/12/25 11:02:57;;;;;;;17.90;11.70;;;6.50;99.90;;;6.25;79.11;100812.34;5032305;28;20195;-67
2022/12/25 11:05:31;;;;;;;16.83;11.07;;;6.40;99.90;;;6.21;78.96;100814.81;5033315;28;20226;-67
2022/12/25 11:08:02;;;;;;;18.10;11.23;;;6.40;99.90;;;6.17;78.53;100807.91;5033462;28;20760;-67
2022/12/25 11:10:34;;;;;;;20.83;12.13;;;6.40;99.90;;;6.16;78.73;100801.94;5032365;28;20203;-67
2022/12/25 11:13:06;;;;;;;16.10;10.53;;;6.40;99.90;;;6.15;78.32;100804.47;5032024;28;20198;-68
2022/12/25 11:15:38;;;;;;;18.90;11.27;;;6.30;99.90;;;6.13;78.24;100796.78;5032179;28;20218;-68
2022/12/25 11:18:20;;;;;;;20.33;12.50;;;6.30;99.90;;;6.14;78.46;100801.03;5031246;28;20191;-68
2022/12/25 11:20:53;;;;;;;16.63;10.97;;;6.30;99.90;;;6.18;78.22;100797.69;5031903;28;20281;-68
2022/12/25 11:23:25;;;;;;;17.20;11.40;;;6.40;99.90;;;6.17;78.39;100796.00;5032213;28;20217;-67
2022/12/25 11:25:57;;;;;;;19.87;11.13;;;6.30;99.90;;;6.20;78.57;100798.59;5032239;28;20630;-67
2022/12/25 11:28:28;;;;;;;16.67;10.80;;;6.40;99.90;;;6.21;78.53;100800.31;5031728;28;20214;-67
2022/12/25 11:31:01;;;;;;;21.47;13.07;;;6.40;99.90;;;6.20;78.47;100792.63;5032001;28;20589;-69
2022/12/25 11:33:35;;;;;;;17.67;12.03;;;6.40;99.90;;;6.22;78.45;100802.06;5032065;28;20660;-68
2022/12/25 11:36:26;;;;;;;19.50;11.70;;;6.40;99.90;;;6.23;77.83;100803.78;5031898;28;20598;-67
2022/12/25 11:38:56;;;;;;;19.37;11.60;;;6.40;99.90;;;6.22;78.18;100799.50;5031792;28;20203;-66
2022/12/25 11:41:33;;;;;;;20.40;11.87;;;6.40;99.90;;;6.23;78.54;100800.38;5031506;28;20667;-68
2022/12/25 11:44:18;;;;;;;18.87;11.37;;;6.40;99.90;;;6.23;77.96;100798.66;5031535;28;20210;-66
2022/12/25 11:46:51;;;;;;;19.33;12.03;;;6.40;99.90;;;6.23;78.24;100806.34;5032007;28;20261;-67
2022/12/25 11:49:21;;;;;;;19.57;11.50;;;6.40;99.90;;;6.23;78.55;100803.78;5031761;28;20202;-67
2022/12/25 11:51:56;;;;;;;21.57;13.93;;;6.40;99.90;;;6.23;78.66;100808.03;5031306;28;20679;-69
2022/12/25 11:54:31;;;;;;;24.37;15.30;;;6.40;99.90;;;6.23;78.37;100808.03;5031456;28;20190;-69
2022/12/25 11:57:04;;;;;;;21.90;13.23;;;6.40;99.90;;;6.20;77.92;100805.44;5031306;28;20194;-67
2022/12/25 11:59:41;;;;;;;20.13;12.57;;;6.40;99.90;;;6.22;78.35;100816.53;5031609;28;20292;-69
2022/12/25 12:02:25;;;;;;;20.67;12.43;;;6.40;99.90;;;6.20;78.46;100813.97;5031255;28;20198;-68
2022/12/25 12:05:08;;;;;;;20.40;11.80;;;6.40;99.90;;;6.20;78.51;100813.97;5031402;28;20668;-67
2022/12/25 12:07:57;;;;;;;21.50;12.10;;;6.40;99.90;;;6.19;78.66;100806.25;5031570;28;20206;-67
2022/12/25 12:10:37;;;;;;;18.53;12.17;;;6.30;99.90;;;6.19;78.53;100809.69;5031585;28;20178;-69
2022/12/25 12:13:25;;;;;;;21.80;12.67;;;6.40;99.90;;;6.17;78.45;100819.00;5031374;28;20195;-66
2022/12/25 12:15:54;;;;;;;18.43;12.10;;;6.30;99.90;;;6.18;78.97;100820.72;5031137;28;20206;-68